createdAt,value
2023-05-05T01:55:09.261Z,62.00
2023-05-05T01:57:39.505Z,61.60
2023-05-05T02:00:11.238Z,62.00
2023-05-05T02:02:41.131Z,60.30
2023-05-05T02:05:11.669Z,61.70
2023-05-05T02:07:41.332Z,62.00
2023-05-05T02:10:12.550Z,60.90
2023-05-05T02:12:43.303Z,58.90
2023-05-05T02:15:13.618Z,59.50
2023-05-05T02:17:47.256Z,59.30
2023-05-05T02:20:17.748Z,57.60
2023-05-05T02:22:47.265Z,57.40
2023-05-05T02:25:19.248Z,55.10
2023-05-05T02:27:50.254Z,56.30
2023-05-05T02:30:21.970Z,56.50
2023-05-05T02:32:57.414Z,56.90
2023-05-05T02:35:40.516Z,56.70
2023-05-05T02:38:15.060Z,57.30
2023-05-05T02:40:45.629Z,57.20
2023-05-05T02:43:17.758Z,57.50
2023-05-05T02:45:47.337Z,57.70
2023-05-05T02:48:17.151Z,57.50
2023-05-05T02:50:46.531Z,57.40
2023-05-05T08:20:24.993Z,71.00
2023-05-05T08:22:54.789Z,71.30
2023-05-05T08:25:24.488Z,71.20
2023-05-05T08:27:54.265Z,71.40
2023-05-05T08:30:24.458Z,71.40
2023-05-05T08:32:54.481Z,71.50
2023-05-05T08:35:24.734Z,71.30
2023-05-05T08:37:56.046Z,71.40
2023-05-05T08:40:31.386Z,71.50
2023-05-05T08:43:01.497Z,71.60
2023-05-05T08:45:31.980Z,71.80
2023-05-05T08:48:05.754Z,71.60
2023-05-05T08:50:37.353Z,71.70
2023-05-05T08:53:06.756Z,71.90
2023-05-05T08:55:37.450Z,72.00
2023-05-05T08:58:07.401Z,72.20
2023-05-05T09:00:37.460Z,72.20
2023-05-05T09:03:07.966Z,72.30
2023-05-05T09:05:37.867Z,72.40
2023-05-05T09:08:09.914Z,72.40
2023-05-05T09:10:42.324Z,72.40
2023-05-05T09:13:11.784Z,72.30
2023-05-05T09:15:42.938Z,72.40
2023-05-05T09:18:13.871Z,72.50
2023-05-05T09:34:32.490Z,73.20
2023-05-05T09:37:01.824Z,73.20
2023-05-05T09:39:40.284Z,73.40
2023-05-05T09:42:19.776Z,73.20
2023-05-05T09:44:49.129Z,73.40
2023-05-05T09:47:28.917Z,73.40
2023-05-05T09:50:04.833Z,73.50
2023-05-05T09:52:34.276Z,73.50
2023-05-05T09:55:04.211Z,73.70
2023-05-05T09:57:36.359Z,73.70
2023-05-05T10:00:07.537Z,73.70
2023-05-05T10:02:38.259Z,73.80
2023-05-05T10:05:09.409Z,73.80
2023-05-05T10:07:39.448Z,74.00
2023-05-05T10:10:10.427Z,74.20
2023-05-05T10:12:40.814Z,74.10
2023-05-05T10:15:10.926Z,74.20
2023-05-05T10:18:02.227Z,74.30
2023-05-05T10:20:39.059Z,74.20
2023-05-05T10:23:10.682Z,74.20
2023-05-05T10:25:52.181Z,74.30
2023-05-05T10:28:25.311Z,74.20
2023-05-05T10:30:56.986Z,74.30
2023-05-05T10:33:32.158Z,74.40
2023-05-05T10:36:04.483Z,74.50
2023-05-05T10:38:34.305Z,74.60
2023-05-05T10:41:04.073Z,74.50
2023-05-05T10:43:34.031Z,74.80
2023-05-05T10:46:03.865Z,74.70
2023-05-05T10:48:37.699Z,74.90
2023-05-05T10:51:39.540Z,74.90
2023-05-05T10:54:28.101Z,75.00
2023-05-05T10:56:58.099Z,75.20
2023-05-05T10:59:40.637Z,75.10
2023-05-05T11:02:23.040Z,75.20
2023-05-05T11:05:11.102Z,75.30
2023-05-05T11:07:40.765Z,75.30
2023-05-05T11:10:11.140Z,75.30
2023-05-05T11:13:04.079Z,75.40
2023-05-05T11:15:35.066Z,75.50
2023-05-05T11:18:07.550Z,75.50
2023-05-05T11:20:45.532Z,75.80
2023-05-05T11:23:16.612Z,75.90
2023-05-05T11:25:46.894Z,76.10
2023-05-05T11:28:18.025Z,75.90
2023-05-05T11:31:03.049Z,75.90
2023-05-05T11:33:35.606Z,76.00
2023-05-05T11:36:08.283Z,76.00
2023-05-05T11:38:46.696Z,76.00
2023-05-05T11:41:19.634Z,75.90
2023-05-05T11:43:49.612Z,75.80
2023-05-05T11:46:19.586Z,75.80
2023-05-05T11:48:55.435Z,75.90
2023-05-05T11:51:25.288Z,76.00
2023-05-05T11:53:55.708Z,76.00
2023-05-05T11:56:25.848Z,76.20
2023-05-05T11:59:11.824Z,76.30
2023-05-05T12:01:45.243Z,76.40
2023-05-05T12:04:15.464Z,76.40
2023-05-05T12:06:45.354Z,76.30
2023-05-05T12:09:24.763Z,76.20
2023-05-05T12:11:55.397Z,76.20
2023-05-05T12:14:26.264Z,76.10
2023-05-05T12:17:07.375Z,76.20
2023-05-05T12:19:38.088Z,76.40
2023-05-05T12:22:07.789Z,76.40
2023-05-05T12:24:39.097Z,76.50
2023-05-05T12:27:15.488Z,76.60
2023-05-05T12:29:44.841Z,76.60
2023-05-05T12:32:22.036Z,76.70
2023-05-05T12:34:55.534Z,76.60
2023-05-05T12:37:28.469Z,76.40
2023-05-05T12:39:58.316Z,76.70
2023-05-05T12:42:27.742Z,76.70
2023-05-05T12:44:57.122Z,76.90
2023-05-05T12:47:33.759Z,77.20
2023-05-05T12:50:05.921Z,77.20
2023-05-05T12:52:46.105Z,77.60
2023-05-05T12:55:16.018Z,77.30
2023-05-05T12:58:06.802Z,77.30
2023-05-05T13:00:36.616Z,76.80
2023-05-05T13:03:07.780Z,77.00
2023-05-05T13:05:46.049Z,77.10
2023-05-05T13:08:17.080Z,77.10
2023-05-05T13:11:00.042Z,77.40
2023-05-05T13:13:29.432Z,77.30
2023-05-05T13:15:59.201Z,77.10
2023-05-05T13:18:31.566Z,77.40
2023-05-05T13:21:00.898Z,77.40
2023-05-05T13:23:30.301Z,77.50
2023-05-05T13:25:59.650Z,77.90
2023-05-05T13:28:29.463Z,77.80
2023-05-05T13:31:00.702Z,77.80
2023-05-05T13:33:30.477Z,77.60
2023-05-05T13:36:00.548Z,77.40
2023-05-05T13:38:30.653Z,77.40
2023-05-05T13:41:00.625Z,77.50
2023-05-05T13:43:29.972Z,77.60
2023-05-05T13:46:12.279Z,78.10
2023-05-05T13:48:49.041Z,78.10
2023-05-05T13:51:18.856Z,78.20
2023-05-05T13:53:49.111Z,78.10
2023-05-05T13:56:19.814Z,77.70
2023-05-05T13:58:50.202Z,77.80
2023-05-05T14:01:20.741Z,78.00
2023-05-05T14:03:50.178Z,77.90
2023-05-05T14:06:20.674Z,77.40
2023-05-05T14:08:50.496Z,77.40
2023-05-05T14:11:19.886Z,77.60
2023-05-05T14:13:50.060Z,77.60
2023-05-05T14:16:19.961Z,78.00
2023-05-05T14:18:49.818Z,78.00
2023-05-05T14:21:19.229Z,78.20
2023-05-05T14:23:49.097Z,78.10
2023-05-05T14:26:18.688Z,78.20
2023-05-05T14:28:49.921Z,77.80
2023-05-05T14:31:19.582Z,77.40
2023-05-05T14:33:49.716Z,77.40
2023-05-05T14:36:19.205Z,77.20
2023-05-05T14:38:48.708Z,77.10
2023-05-05T14:41:18.539Z,77.20
2023-05-05T14:43:48.590Z,77.60
2023-05-05T14:46:18.483Z,77.80
2023-05-05T14:48:50.893Z,77.60
2023-05-05T14:51:20.358Z,77.90
2023-05-05T14:53:50.234Z,77.70
2023-05-05T14:56:20.160Z,77.70
2023-05-05T14:58:49.578Z,78.40
2023-05-05T15:01:19.172Z,78.60
2023-05-05T15:03:48.861Z,78.60
2023-05-05T15:06:18.920Z,78.30
2023-05-05T15:08:48.466Z,78.40
2023-05-05T15:11:17.942Z,78.40
2023-05-05T15:13:47.963Z,78.20
2023-05-05T15:16:17.392Z,78.10
2023-05-05T15:18:46.825Z,77.90
2023-05-05T15:21:16.191Z,78.10
2023-05-05T15:23:45.588Z,78.30
2023-05-05T20:47:54.672Z,80.70
2023-05-05T20:50:24.466Z,80.60
2023-05-05T20:52:53.871Z,80.80
2023-05-05T20:55:23.390Z,80.90
2023-05-05T20:57:52.803Z,80.80
2023-05-05T21:00:22.246Z,80.70
2023-05-05T21:02:51.902Z,80.70
2023-05-05T21:05:21.688Z,80.70
2023-05-05T21:07:51.163Z,80.90
2023-05-05T21:10:20.689Z,81.10
2023-05-05T21:12:50.039Z,81.00
2023-05-05T21:15:19.476Z,81.20
2023-05-05T21:17:49.395Z,81.50
2023-05-05T21:20:20.284Z,81.70
2023-05-05T21:22:49.681Z,81.60
2023-05-05T21:25:19.926Z,81.40
2023-05-05T21:27:49.912Z,81.70
2023-05-05T21:30:19.475Z,81.60
2023-05-05T21:32:48.972Z,81.80
2023-05-05T21:35:18.394Z,81.70
2023-05-05T21:37:48.777Z,81.90
2023-05-05T21:40:18.312Z,81.80
2023-05-05T21:42:47.688Z,81.70
2023-05-05T21:45:17.122Z,82.00
2023-05-05T21:47:46.555Z,82.20
2023-05-05T21:50:15.976Z,82.10
2023-05-05T21:52:45.396Z,82.10
2023-05-05T21:55:14.809Z,82.20
2023-05-05T21:57:44.133Z,82.20
2023-05-05T22:00:18.584Z,82.20
2023-05-05T22:02:48.582Z,82.40
2023-05-05T22:05:18.164Z,82.30
2023-05-05T22:07:48.080Z,82.20
2023-05-05T22:10:18.663Z,82.30
2023-05-05T22:12:48.342Z,82.60
2023-05-05T22:15:21.815Z,82.60
2023-05-05T22:17:51.316Z,83.00
2023-05-05T22:20:20.826Z,83.10
2023-05-05T22:22:50.190Z,83.30
2023-05-05T22:25:19.597Z,83.40
2023-05-05T22:27:49.110Z,83.10
2023-05-05T22:30:19.016Z,83.20
2023-05-05T22:32:49.007Z,83.40
2023-05-05T22:35:18.385Z,83.50
2023-05-05T22:37:47.898Z,83.60
2023-05-05T22:40:17.268Z,83.50
2023-05-05T22:42:46.681Z,83.40
2023-05-05T22:45:16.112Z,83.40
2023-05-05T22:47:46.053Z,83.70
2023-05-05T22:50:15.505Z,83.80
2023-05-05T22:52:45.268Z,83.70
2023-05-05T22:55:16.258Z,83.80
2023-05-05T22:57:47.561Z,83.80
2023-05-05T23:00:17.479Z,84.10
2023-05-05T23:02:46.961Z,84.20
2023-05-05T23:05:16.778Z,84.10
2023-05-05T23:07:46.630Z,83.90
2023-05-05T23:10:16.019Z,83.70
2023-05-05T23:12:45.462Z,83.60
2023-05-05T23:15:15.105Z,83.30
2023-05-05T23:17:44.891Z,83.20
2023-05-05T23:20:14.773Z,83.40
2023-05-05T23:22:44.549Z,83.30
2023-05-05T23:25:14.396Z,83.30
2023-05-05T23:27:44.326Z,83.30
2023-05-05T23:30:14.450Z,83.20
2023-05-05T23:32:45.701Z,83.10
2023-05-05T23:35:16.312Z,83.10
2023-05-05T23:37:45.689Z,83.20
2023-05-05T23:40:15.452Z,83.20
2023-05-05T23:42:44.811Z,82.90
2023-05-05T23:45:14.243Z,82.60
2023-05-05T23:47:44.919Z,82.30
2023-05-05T23:50:15.363Z,81.90
2023-05-05T23:52:44.779Z,81.40
2023-05-05T23:55:14.713Z,81.00
2023-05-05T23:57:44.101Z,80.70
